sensor_id;sensor_type;location;lat;lon;timestamp;P1;durP1;ratioP1;P2;durP2;ratioP2
61385;SDS011;47256;18.904;-99.054;2023-08-12T00:02:06;11.07;;;6.25;;
61385;SDS011;47256;18.904;-99.054;2023-08-12T00:04:33;9.93;;;5.78;;
61385;SDS011;47256;18.904;-99.054;2023-08-12T00:07:00;8.07;;;6.25;;
61385;SDS011;47256;18.904;-99.054;2023-08-12T00:09:27;10.70;;;5.63;;
61385;SDS011;47256;18.904;-99.054;2023-08-12T00:11:55;13.73;;;5.95;;
61385;SDS011;47256;18.904;-99.054;2023-08-12T00:14:22;9.85;;;5.97;;
61385;SDS011;47256;18.904;-99.054;2023-08-12T00:16:49;13.18;;;6.30;;
61385;SDS011;47256;18.904;-99.054;2023-08-12T00:19:17;8.85;;;6.65;;
61385;SDS011;47256;18.904;-99.054;2023-08-12T00:21:44;11.43;;;6.28;;
61385;SDS011;47256;18.904;-99.054;2023-08-12T00:24:11;10.98;;;6.80;;
61385;SDS011;47256;18.904;-99.054;2023-08-12T00:26:39;10.00;;;6.40;;
61385;SDS011;47256;18.904;-99.054;2023-08-12T00:29:06;9.52;;;6.50;;
61385;SDS011;47256;18.904;-99.054;2023-08-12T00:31:34;12.88;;;7.70;;
61385;SDS011;47256;18.904;-99.054;2023-08-12T00:34:02;10.98;;;6.93;;
61385;SDS011;47256;18.904;-99.054;2023-08-12T00:36:30;13.10;;;7.07;;
61385;SDS011;47256;18.904;-99.054;2023-08-12T00:38:57;13.30;;;6.60;;
61385;SDS011;47256;18.904;-99.054;2023-08-12T00:41:25;11.10;;;6.57;;
61385;SDS011;47256;18.904;-99.054;2023-08-12T00:43:52;11.32;;;7.15;;
61385;SDS011;47256;18.904;-99.054;2023-08-12T00:46:20;12.43;;;6.78;;
61385;SDS011;47256;18.904;-99.054;2023-08-12T00:48:47;16.67;;;7.28;;
61385;SDS011;47256;18.904;-99.054;2023-08-12T00:51:15;17.42;;;8.07;;
61385;SDS011;47256;18.904;-99.054;2023-08-12T00:53:43;8.85;;;7.00;;
61385;SDS011;47256;18.904;-99.054;2023-08-12T00:56:14;14.48;;;7.18;;
61385;SDS011;47256;18.904;-99.054;2023-08-12T00:58:42;15.07;;;7.65;;
61385;SDS011;47256;18.904;-99.054;2023-08-12T01:01:10;14.77;;;7.65;;
61385;SDS011;47256;18.904;-99.054;2023-08-12T01:03:38;10.60;;;6.65;;
61385;SDS011;47256;18.904;-99.054;2023-08-12T01:06:06;11.57;;;6.95;;
61385;SDS011;47256;18.904;-99.054;2023-08-12T01:08:33;9.05;;;6.80;;
61385;SDS011;47256;18.904;-99.054;2023-08-12T01:17:05;10.77;;;7.15;;
61385;SDS011;47256;18.904;-99.054;2023-08-12T01:19:35;9.93;;;7.53;;
61385;SDS011;47256;18.904;-99.054;2023-08-12T01:22:05;12.45;;;7.25;;
61385;SDS011;47256;18.904;-99.054;2023-08-12T01:24:38;15.85;;;7.80;;
61385;SDS011;47256;18.904;-99.054;2023-08-12T01:27:07;13.68;;;8.15;;
61385;SDS011;47256;18.904;-99.054;2023-08-12T01:29:43;16.45;;;9.40;;
61385;SDS011;47256;18.904;-99.054;2023-08-12T01:35:07;20.60;;;8.35;;
61385;SDS011;47256;18.904;-99.054;2023-08-12T01:37:39;12.77;;;8.93;;
61385;SDS011;47256;18.904;-99.054;2023-08-12T01:40:07;17.75;;;10.38;;
61385;SDS011;47256;18.904;-99.054;2023-08-12T01:42:36;25.17;;;10.63;;
61385;SDS011;47256;18.904;-99.054;2023-08-12T01:45:05;22.00;;;10.60;;
61385;SDS011;47256;18.904;-99.054;2023-08-12T01:47:33;18.50;;;9.13;;
61385;SDS011;47256;18.904;-99.054;2023-08-12T01:50:00;24.30;;;11.13;;
61385;SDS011;47256;18.904;-99.054;2023-08-12T01:52:28;20.52;;;9.90;;
61385;SDS011;47256;18.904;-99.054;2023-08-12T01:54:55;24.42;;;10.63;;
61385;SDS011;47256;18.904;-99.054;2023-08-12T01:57:22;17.30;;;9.65;;
61385;SDS011;47256;18.904;-99.054;2023-08-12T01:59:49;15.50;;;10.25;;
61385;SDS011;47256;18.904;-99.054;2023-08-12T02:02:17;21.83;;;10.32;;
61385;SDS011;47256;18.904;-99.054;2023-08-12T02:04:46;14.63;;;10.27;;
61385;SDS011;47256;18.904;-99.054;2023-08-12T02:07:13;17.88;;;11.18;;
61385;SDS011;47256;18.904;-99.054;2023-08-12T02:09:41;16.92;;;11.48;;
61385;SDS011;47256;18.904;-99.054;2023-08-12T02:12:08;21.38;;;11.15;;
61385;SDS011;47256;18.904;-99.054;2023-08-12T02:14:35;18.05;;;10.20;;
61385;SDS011;47256;18.904;-99.054;2023-08-12T02:17:02;17.42;;;9.27;;
61385;SDS011;47256;18.904;-99.054;2023-08-12T02:19:33;12.70;;;9.27;;
61385;SDS011;47256;18.904;-99.054;2023-08-12T02:22:03;15.35;;;9.45;;
61385;SDS011;47256;18.904;-99.054;2023-08-12T02:24:30;16.65;;;9.88;;
61385;SDS011;47256;18.904;-99.054;2023-08-12T02:26:58;19.58;;;8.30;;
61385;SDS011;47256;18.904;-99.054;2023-08-12T02:29:25;12.18;;;7.55;;
61385;SDS011;47256;18.904;-99.054;2023-08-12T02:31:52;8.00;;;5.75;;
61385;SDS011;47256;18.904;-99.054;2023-08-12T02:34:21;11.68;;;6.03;;
61385;SDS011;47256;18.904;-99.054;2023-08-12T02:36:48;9.70;;;6.32;;
61385;SDS011;47256;18.904;-99.054;2023-08-12T02:39:16;8.75;;;6.40;;
61385;SDS011;47256;18.904;-99.054;2023-08-12T02:41:43;14.75;;;6.45;;
61385;SDS011;47256;18.904;-99.054;2023-08-12T02:44:10;12.07;;;7.10;;
61385;SDS011;47256;18.904;-99.054;2023-08-12T02:46:37;7.95;;;5.95;;
61385;SDS011;47256;18.904;-99.054;2023-08-12T02:49:05;11.68;;;5.95;;
61385;SDS011;47256;18.904;-99.054;2023-08-12T02:51:32;7.85;;;5.57;;
61385;SDS011;47256;18.904;-99.054;2023-08-12T02:53:59;9.15;;;5.93;;
61385;SDS011;47256;18.904;-99.054;2023-08-12T02:56:26;8.80;;;5.25;;
61385;SDS011;47256;18.904;-99.054;2023-08-12T02:58:53;7.88;;;5.05;;
61385;SDS011;47256;18.904;-99.054;2023-08-12T03:01:21;6.53;;;4.85;;
61385;SDS011;47256;18.904;-99.054;2023-08-12T03:03:49;9.60;;;5.78;;
61385;SDS011;47256;18.904;-99.054;2023-08-12T03:06:16;11.13;;;6.45;;
61385;SDS011;47256;18.904;-99.054;2023-08-12T03:08:43;14.35;;;7.40;;
61385;SDS011;47256;18.904;-99.054;2023-08-12T03:11:10;9.52;;;6.70;;
61385;SDS011;47256;18.904;-99.054;2023-08-12T03:13:39;13.02;;;7.00;;
61385;SDS011;47256;18.904;-99.054;2023-08-12T03:16:10;11.40;;;6.15;;
61385;SDS011;47256;18.904;-99.054;2023-08-12T03:21:10;13.20;;;6.90;;
61385;SDS011;47256;18.904;-99.054;2023-08-12T03:23:38;10.75;;;6.82;;
61385;SDS011;47256;18.904;-99.054;2023-08-12T03:26:08;12.02;;;7.47;;
61385;SDS011;47256;18.904;-99.054;2023-08-12T03:28:36;13.45;;;7.53;;
61385;SDS011;47256;18.904;-99.054;2023-08-12T03:31:03;10.85;;;7.47;;
61385;SDS011;47256;18.904;-99.054;2023-08-12T03:33:33;11.25;;;7.65;;
61385;SDS011;47256;18.904;-99.054;2023-08-12T03:36:01;16.63;;;7.82;;
61385;SDS011;47256;18.904;-99.054;2023-08-12T03:38:29;11.48;;;7.40;;
61385;SDS011;47256;18.904;-99.054;2023-08-12T03:40:58;12.38;;;7.38;;
61385;SDS011;47256;18.904;-99.054;2023-08-12T03:43:27;13.90;;;6.68;;
61385;SDS011;47256;18.904;-99.054;2023-08-12T03:45:54;9.90;;;7.07;;
61385;SDS011;47256;18.904;-99.054;2023-08-12T03:48:25;10.95;;;7.18;;
61385;SDS011;47256;18.904;-99.054;2023-08-12T03:50:52;12.18;;;6.78;;
61385;SDS011;47256;18.904;-99.054;2023-08-12T03:53:20;8.90;;;7.05;;
61385;SDS011;47256;18.904;-99.054;2023-08-12T03:55:48;10.02;;;6.82;;
61385;SDS011;47256;18.904;-99.054;2023-08-12T03:58:16;12.02;;;7.57;;
61385;SDS011;47256;18.904;-99.054;2023-08-12T04:00:44;16.40;;;7.40;;
61385;SDS011;47256;18.904;-99.054;2023-08-12T04:03:14;10.75;;;7.07;;
61385;SDS011;47256;18.904;-99.054;2023-08-12T04:05:48;12.68;;;7.13;;
61385;SDS011;47256;18.904;-99.054;2023-08-12T04:08:20;16.88;;;6.93;;
61385;SDS011;47256;18.904;-99.054;2023-08-12T04:10:48;7.32;;;5.93;;
61385;SDS011;47256;18.904;-99.054;2023-08-12T04:13:16;8.50;;;5.90;;
61385;SDS011;47256;18.904;-99.054;2023-08-12T04:15:48;11.35;;;6.25;;
61385;SDS011;47256;18.904;-99.054;2023-08-12T04:18:17;12.10;;;6.25;;
61385;SDS011;47256;18.904;-99.054;2023-08-12T04:20:51;11.27;;;5.97;;
61385;SDS011;47256;18.904;-99.054;2023-08-12T04:23:19;10.30;;;5.35;;
61385;SDS011;47256;18.904;-99.054;2023-08-12T04:25:47;8.98;;;6.10;;
61385;SDS011;47256;18.904;-99.054;2023-08-12T04:28:15;8.30;;;6.03;;
61385;SDS011;47256;18.904;-99.054;2023-08-12T04:30:45;6.97;;;5.22;;
61385;SDS011;47256;18.904;-99.054;2023-08-12T04:33:15;9.50;;;5.20;;
61385;SDS011;47256;18.904;-99.054;2023-08-12T04:35:44;17.05;;;6.10;;
61385;SDS011;47256;18.904;-99.054;2023-08-12T04:38:13;8.60;;;5.10;;
61385;SDS011;47256;18.904;-99.054;2023-08-12T04:40:42;7.25;;;5.38;;
61385;SDS011;47256;18.904;-99.054;2023-08-12T04:43:09;11.52;;;5.57;;
61385;SDS011;47256;18.904;-99.054;2023-08-12T04:45:37;9.00;;;5.85;;
61385;SDS011;47256;18.904;-99.054;2023-08-12T04:48:05;10.75;;;5.88;;
61385;SDS011;47256;18.904;-99.054;2023-08-12T04:50:35;11.23;;;5.43;;
61385;SDS011;47256;18.904;-99.054;2023-08-12T04:53:03;15.52;;;6.65;;
61385;SDS011;47256;18.904;-99.054;2023-08-12T04:55:31;11.45;;;6.28;;
61385;SDS011;47256;18.904;-99.054;2023-08-12T04:57:59;8.95;;;5.75;;
61385;SDS011;47256;18.904;-99.054;2023-08-12T05:00:27;8.30;;;5.22;;
61385;SDS011;47256;18.904;-99.054;2023-08-12T05:02:55;13.45;;;6.00;;
61385;SDS011;47256;18.904;-99.054;2023-08-12T05:05:23;11.27;;;6.05;;
61385;SDS011;47256;18.904;-99.054;2023-08-12T05:07:53;11.55;;;6.18;;
61385;SDS011;47256;18.904;-99.054;2023-08-12T05:10:20;18.83;;;6.88;;
61385;SDS011;47256;18.904;-99.054;2023-08-12T05:12:47;10.63;;;6.90;;
61385;SDS011;47256;18.904;-99.054;2023-08-12T05:15:16;15.77;;;6.28;;
61385;SDS011;47256;18.904;-99.054;2023-08-12T05:17:43;10.90;;;6.70;;
61385;SDS011;47256;18.904;-99.054;2023-08-12T05:20:12;10.55;;;6.22;;
61385;SDS011;47256;18.904;-99.054;2023-08-12T05:22:40;6.80;;;5.80;;
61385;SDS011;47256;18.904;-99.054;2023-08-12T05:25:07;14.63;;;6.28;;
61385;SDS011;47256;18.904;-99.054;2023-08-12T05:27:41;9.73;;;6.43;;
61385;SDS011;47256;18.904;-99.054;2023-08-12T05:30:09;11.50;;;6.63;;
61385;SDS011;47256;18.904;-99.054;2023-08-12T05:32:38;10.27;;;5.70;;
61385;SDS011;47256;18.904;-99.054;2023-08-12T05:35:05;11.63;;;6.28;;
61385;SDS011;47256;18.904;-99.054;2023-08-12T05:37:33;8.65;;;5.93;;
61385;SDS011;47256;18.904;-99.054;2023-08-12T05:40:00;7.75;;;6.22;;
61385;SDS011;47256;18.904;-99.054;2023-08-12T05:42:29;9.20;;;5.85;;
61385;SDS011;47256;18.904;-99.054;2023-08-12T05:44:56;6.80;;;5.28;;
61385;SDS011;47256;18.904;-99.054;2023-08-12T05:47:23;12.55;;;6.75;;
61385;SDS011;47256;18.904;-99.054;2023-08-12T05:49:50;11.52;;;6.50;;
61385;SDS011;47256;18.904;-99.054;2023-08-12T05:52:17;14.95;;;6.13;;
61385;SDS011;47256;18.904;-99.054;2023-08-12T05:54:45;11.07;;;6.65;;
61385;SDS011;47256;18.904;-99.054;2023-08-12T05:57:12;9.93;;;6.47;;
61385;SDS011;47256;18.904;-99.054;2023-08-12T05:59:39;10.60;;;6.22;;
61385;SDS011;47256;18.904;-99.054;2023-08-12T06:02:07;10.98;;;6.35;;
61385;SDS011;47256;18.904;-99.054;2023-08-12T06:04:35;8.65;;;6.25;;
61385;SDS011;47256;18.904;-99.054;2023-08-12T06:07:03;11.85;;;7.35;;
61385;SDS011;47256;18.904;-99.054;2023-08-12T06:09:30;10.35;;;7.55;;
61385;SDS011;47256;18.904;-99.054;2023-08-12T06:11:57;9.07;;;7.30;;
61385;SDS011;47256;18.904;-99.054;2023-08-12T06:14:24;14.82;;;7.68;;
61385;SDS011;47256;18.904;-99.054;2023-08-12T06:16:52;10.77;;;6.57;;
61385;SDS011;47256;18.904;-99.054;2023-08-12T06:19:19;10.73;;;6.65;;
61385;SDS011;47256;18.904;-99.054;2023-08-12T06:21:46;10.77;;;6.72;;
61385;SDS011;47256;18.904;-99.054;2023-08-12T06:24:13;11.55;;;7.47;;
61385;SDS011;47256;18.904;-99.054;2023-08-12T06:26:40;12.02;;;7.60;;
61385;SDS011;47256;18.904;-99.054;2023-08-12T06:29:07;10.77;;;6.93;;
61385;SDS011;47256;18.904;-99.054;2023-08-12T06:31:35;12.65;;;8.02;;
61385;SDS011;47256;18.904;-99.054;2023-08-12T06:34:03;17.30;;;8.50;;
61385;SDS011;47256;18.904;-99.054;2023-08-12T06:36:31;8.95;;;7.15;;
61385;SDS011;47256;18.904;-99.054;2023-08-12T06:38:58;16.30;;;8.40;;
61385;SDS011;47256;18.904;-99.054;2023-08-12T06:41:26;13.25;;;8.50;;
61385;SDS011;47256;18.904;-99.054;2023-08-12T06:43:53;13.38;;;8.55;;
61385;SDS011;47256;18.904;-99.054;2023-08-12T06:46:20;13.27;;;8.93;;
61385;SDS011;47256;18.904;-99.054;2023-08-12T06:48:48;13.27;;;4.80;;
61385;SDS011;47256;18.904;-99.054;2023-08-12T06:51:15;8.88;;;4.75;;
61385;SDS011;47256;18.904;-99.054;2023-08-12T06:53:42;13.60;;;5.57;;
61385;SDS011;47256;18.904;-99.054;2023-08-12T06:56:09;23.23;;;7.05;;
61385;SDS011;47256;18.904;-99.054;2023-08-12T06:58:36;15.93;;;5.50;;
61385;SDS011;47256;18.904;-99.054;2023-08-12T07:01:04;10.90;;;6.53;;
61385;SDS011;47256;18.904;-99.054;2023-08-12T07:03:31;12.00;;;5.43;;
61385;SDS011;47256;18.904;-99.054;2023-08-12T07:05:58;5.88;;;4.20;;
61385;SDS011;47256;18.904;-99.054;2023-08-12T07:08:26;6.30;;;4.13;;
61385;SDS011;47256;18.904;-99.054;2023-08-12T07:10:54;13.20;;;4.93;;
61385;SDS011;47256;18.904;-99.054;2023-08-12T07:13:21;8.48;;;4.65;;
61385;SDS011;47256;18.904;-99.054;2023-08-12T07:15:49;7.82;;;4.97;;
61385;SDS011;47256;18.904;-99.054;2023-08-12T07:18:16;10.02;;;4.97;;
61385;SDS011;47256;18.904;-99.054;2023-08-12T07:20:44;7.95;;;4.50;;
61385;SDS011;47256;18.904;-99.054;2023-08-12T07:23:11;12.98;;;5.05;;
61385;SDS011;47256;18.904;-99.054;2023-08-12T07:25:39;8.32;;;4.85;;
61385;SDS011;47256;18.904;-99.054;2023-08-12T07:28:06;11.10;;;4.68;;
61385;SDS011;47256;18.904;-99.054;2023-08-12T07:33:30;8.00;;;4.07;;
61385;SDS011;47256;18.904;-99.054;2023-08-12T07:35:58;10.45;;;5.20;;
61385;SDS011;47256;18.904;-99.054;2023-08-12T07:38:25;5.88;;;4.65;;
61385;SDS011;47256;18.904;-99.054;2023-08-12T07:40:53;9.23;;;4.30;;
61385;SDS011;47256;18.904;-99.054;2023-08-12T07:43:21;6.65;;;4.18;;
61385;SDS011;47256;18.904;-99.054;2023-08-12T07:45:52;6.65;;;4.00;;
61385;SDS011;47256;18.904;-99.054;2023-08-12T07:48:20;4.20;;;3.13;;
61385;SDS011;47256;18.904;-99.054;2023-08-12T07:50:47;8.13;;;4.38;;
61385;SDS011;47256;18.904;-99.054;2023-08-12T07:53:21;8.98;;;3.78;;
61385;SDS011;47256;18.904;-99.054;2023-08-12T07:55:48;6.85;;;3.55;;
61385;SDS011;47256;18.904;-99.054;2023-08-12T07:58:16;6.72;;;3.78;;
61385;SDS011;47256;18.904;-99.054;2023-08-12T08:00:43;9.73;;;3.92;;
61385;SDS011;47256;18.904;-99.054;2023-08-12T08:03:10;6.28;;;3.78;;
61385;SDS011;47256;18.904;-99.054;2023-08-12T08:05:41;7.57;;;4.47;;
61385;SDS011;47256;18.904;-99.054;2023-08-12T08:08:08;9.40;;;4.85;;
61385;SDS011;47256;18.904;-99.054;2023-08-12T08:10:35;6.57;;;4.15;;
61385;SDS011;47256;18.904;-99.054;2023-08-12T08:13:02;5.20;;;3.95;;
61385;SDS011;47256;18.904;-99.054;2023-08-12T08:15:30;8.15;;;4.25;;
61385;SDS011;47256;18.904;-99.054;2023-08-12T08:17:58;10.25;;;4.47;;
61385;SDS011;47256;18.904;-99.054;2023-08-12T08:20:27;8.00;;;3.85;;
61385;SDS011;47256;18.904;-99.054;2023-08-12T08:22:54;8.40;;;4.65;;
61385;SDS011;47256;18.904;-99.054;2023-08-12T08:25:21;4.55;;;3.47;;
61385;SDS011;47256;18.904;-99.054;2023-08-12T08:27:48;6.57;;;4.05;;
61385;SDS011;47256;18.904;-99.054;2023-08-12T08:30:16;8.30;;;4.30;;
61385;SDS011;47256;18.904;-99.054;2023-08-12T08:32:43;9.27;;;4.38;;
61385;SDS011;47256;18.904;-99.054;2023-08-12T08:35:12;5.35;;;3.70;;
61385;SDS011;47256;18.904;-99.054;2023-08-12T08:37:41;5.25;;;3.72;;
61385;SDS011;47256;18.904;-99.054;2023-08-12T08:40:08;6.53;;;3.80;;
61385;SDS011;47256;18.904;-99.054;2023-08-12T08:42:36;5.40;;;4.15;;
61385;SDS011;47256;18.904;-99.054;2023-08-12T08:45:04;6.40;;;3.72;;
61385;SDS011;47256;18.904;-99.054;2023-08-12T08:47:38;8.30;;;4.18;;
61385;SDS011;47256;18.904;-99.054;2023-08-12T08:50:06;5.65;;;4.05;;
61385;SDS011;47256;18.904;-99.054;2023-08-12T08:52:40;4.93;;;3.65;;
61385;SDS011;47256;18.904;-99.054;2023-08-12T08:55:09;10.07;;;3.92;;
61385;SDS011;47256;18.904;-99.054;2023-08-12T08:57:37;10.50;;;4.65;;
61385;SDS011;47256;18.904;-99.054;2023-08-12T09:00:05;9.73;;;4.53;;
61385;SDS011;47256;18.904;-99.054;2023-08-12T09:02:37;7.50;;;4.18;;
61385;SDS011;47256;18.904;-99.054;2023-08-12T09:05:05;7.60;;;4.72;;
61385;SDS011;47256;18.904;-99.054;2023-08-12T09:07:33;7.30;;;4.15;;
61385;SDS011;47256;18.904;-99.054;2023-08-12T09:10:01;6.55;;;4.57;;
61385;SDS011;47256;18.904;-99.054;2023-08-12T09:12:30;7.15;;;3.97;;
61385;SDS011;47256;18.904;-99.054;2023-08-12T09:14:58;8.48;;;4.47;;
61385;SDS011;47256;18.904;-99.054;2023-08-12T09:17:25;10.10;;;4.63;;
61385;SDS011;47256;18.904;-99.054;2023-08-12T09:19:52;6.28;;;4.95;;
61385;SDS011;47256;18.904;-99.054;2023-08-12T09:22:20;10.18;;;5.00;;
61385;SDS011;47256;18.904;-99.054;2023-08-12T09:24:50;9.13;;;5.00;;
61385;SDS011;47256;18.904;-99.054;2023-08-12T09:27:23;7.78;;;4.72;;
61385;SDS011;47256;18.904;-99.054;2023-08-12T09:29:55;10.30;;;4.90;;
61385;SDS011;47256;18.904;-99.054;2023-08-12T09:32:24;8.07;;;4.55;;
61385;SDS011;47256;18.904;-99.054;2023-08-12T09:34:52;7.60;;;4.80;;
61385;SDS011;47256;18.904;-99.054;2023-08-12T09:37:22;6.28;;;4.57;;
61385;SDS011;47256;18.904;-99.054;2023-08-12T09:39:51;12.70;;;6.00;;
61385;SDS011;47256;18.904;-99.054;2023-08-12T09:42:18;10.40;;;5.90;;
61385;SDS011;47256;18.904;-99.054;2023-08-12T09:44:45;9.25;;;5.15;;
61385;SDS011;47256;18.904;-99.054;2023-08-12T09:47:13;7.97;;;5.05;;
61385;SDS011;47256;18.904;-99.054;2023-08-12T09:49:40;9.00;;;5.18;;
61385;SDS011;47256;18.904;-99.054;2023-08-12T09:52:08;6.40;;;4.78;;
61385;SDS011;47256;18.904;-99.054;2023-08-12T09:54:35;8.90;;;5.43;;
61385;SDS011;47256;18.904;-99.054;2023-08-12T09:57:03;7.55;;;5.50;;
61385;SDS011;47256;18.904;-99.054;2023-08-12T09:59:33;9.95;;;5.50;;
61385;SDS011;47256;18.904;-99.054;2023-08-12T10:02:02;7.43;;;5.47;;
61385;SDS011;47256;18.904;-99.054;2023-08-12T10:04:38;7.95;;;5.43;;
61385;SDS011;47256;18.904;-99.054;2023-08-12T10:07:09;10.25;;;4.90;;
61385;SDS011;47256;18.904;-99.054;2023-08-12T10:09:38;7.90;;;4.97;;
61385;SDS011;47256;18.904;-99.054;2023-08-12T10:12:06;9.95;;;5.00;;
61385;SDS011;47256;18.904;-99.054;2023-08-12T10:14:35;9.70;;;5.40;;
61385;SDS011;47256;18.904;-99.054;2023-08-12T10:17:02;6.60;;;4.35;;
61385;SDS011;47256;18.904;-99.054;2023-08-12T10:19:30;10.07;;;5.07;;
61385;SDS011;47256;18.904;-99.054;2023-08-12T10:21:58;9.88;;;4.93;;
61385;SDS011;47256;18.904;-99.054;2023-08-12T10:24:27;6.80;;;4.38;;
61385;SDS011;47256;18.904;-99.054;2023-08-12T10:26:55;7.47;;;4.35;;
61385;SDS011;47256;18.904;-99.054;2023-08-12T10:29:23;4.78;;;3.55;;
61385;SDS011;47256;18.904;-99.054;2023-08-12T10:31:50;15.05;;;4.47;;
61385;SDS011;47256;18.904;-99.054;2023-08-12T10:34:23;5.38;;;4.07;;
61385;SDS011;47256;18.904;-99.054;2023-08-12T10:36:55;4.45;;;3.63;;
61385;SDS011;47256;18.904;-99.054;2023-08-12T10:39:27;7.35;;;4.35;;
61385;SDS011;47256;18.904;-99.054;2023-08-12T10:41:57;6.90;;;3.88;;
61385;SDS011;47256;18.904;-99.054;2023-08-12T10:44:38;4.45;;;3.13;;
61385;SDS011;47256;18.904;-99.054;2023-08-12T10:47:18;5.18;;;3.90;;
61385;SDS011;47256;18.904;-99.054;2023-08-12T10:49:49;6.50;;;3.90;;
61385;SDS011;47256;18.904;-99.054;2023-08-12T10:52:29;6.00;;;3.42;;
61385;SDS011;47256;18.904;-99.054;2023-08-12T10:57:57;9.90;;;4.25;;
61385;SDS011;47256;18.904;-99.054;2023-08-12T11:00:25;4.90;;;3.65;;
61385;SDS011;47256;18.904;-99.054;2023-08-12T11:02:55;9.25;;;3.00;;
61385;SDS011;47256;18.904;-99.054;2023-08-12T11:05:24;4.20;;;3.42;;
61385;SDS011;47256;18.904;-99.054;2023-08-12T11:08:03;6.60;;;3.70;;
61385;SDS011;47256;18.904;-99.054;2023-08-12T11:10:32;4.30;;;3.30;;
61385;SDS011;47256;18.904;-99.054;2023-08-12T11:13:00;8.20;;;3.60;;
61385;SDS011;47256;18.904;-99.054;2023-08-12T11:18:15;7.03;;;4.10;;
61385;SDS011;47256;18.904;-99.054;2023-08-12T11:20:47;5.00;;;3.20;;
61385;SDS011;47256;18.904;-99.054;2023-08-12T11:23:15;5.25;;;3.42;;
61385;SDS011;47256;18.904;-99.054;2023-08-12T11:25:43;10.30;;;3.95;;
61385;SDS011;47256;18.904;-99.054;2023-08-12T11:28:11;4.57;;;3.30;;
61385;SDS011;47256;18.904;-99.054;2023-08-12T11:30:40;5.00;;;3.75;;
61385;SDS011;47256;18.904;-99.054;2023-08-12T11:33:15;6.95;;;3.97;;
61385;SDS011;47256;18.904;-99.054;2023-08-12T11:35:45;4.63;;;4.13;;
61385;SDS011;47256;18.904;-99.054;2023-08-12T11:38:12;7.25;;;4.70;;
61385;SDS011;47256;18.904;-99.054;2023-08-12T11:40:43;5.15;;;4.03;;
61385;SDS011;47256;18.904;-99.054;2023-08-12T11:43:10;7.22;;;3.95;;
61385;SDS011;47256;18.904;-99.054;2023-08-12T11:45:41;6.03;;;4.65;;
61385;SDS011;47256;18.904;-99.054;2023-08-12T11:48:09;7.30;;;4.63;;
61385;SDS011;47256;18.904;-99.054;2023-08-12T11:50:36;7.10;;;4.85;;
61385;SDS011;47256;18.904;-99.054;2023-08-12T11:53:04;8.02;;;4.60;;
61385;SDS011;47256;18.904;-99.054;2023-08-12T11:55:32;6.93;;;4.50;;
61385;SDS011;47256;18.904;-99.054;2023-08-12T11:57:59;8.30;;;5.72;;
61385;SDS011;47256;18.904;-99.054;2023-08-12T12:00:27;11.43;;;6.88;;
61385;SDS011;47256;18.904;-99.054;2023-08-12T12:02:55;6.07;;;5.00;;
61385;SDS011;47256;18.904;-99.054;2023-08-12T12:05:23;8.02;;;5.20;;
61385;SDS011;47256;18.904;-99.054;2023-08-12T12:07:55;11.60;;;5.10;;
61385;SDS011;47256;18.904;-99.054;2023-08-12T12:10:28;8.00;;;5.82;;
61385;SDS011;47256;18.904;-99.054;2023-08-12T12:12:56;10.70;;;5.82;;
61385;SDS011;47256;18.904;-99.054;2023-08-12T12:15:25;7.07;;;5.05;;
61385;SDS011;47256;18.904;-99.054;2023-08-12T12:17:53;10.55;;;5.28;;
61385;SDS011;47256;18.904;-99.054;2023-08-12T12:20:20;7.10;;;4.72;;
61385;SDS011;47256;18.904;-99.054;2023-08-12T12:22:48;10.52;;;5.43;;
61385;SDS011;47256;18.904;-99.054;2023-08-12T12:25:15;8.27;;;5.03;;
61385;SDS011;47256;18.904;-99.054;2023-08-12T12:27:48;13.75;;;5.43;;
61385;SDS011;47256;18.904;-99.054;2023-08-12T12:30:16;9.30;;;4.78;;
61385;SDS011;47256;18.904;-99.054;2023-08-12T12:32:44;9.75;;;6.00;;
61385;SDS011;47256;18.904;-99.054;2023-08-12T12:35:12;6.45;;;4.90;;
61385;SDS011;47256;18.904;-99.054;2023-08-12T12:37:40;12.10;;;5.75;;
61385;SDS011;47256;18.904;-99.054;2023-08-12T12:40:08;12.98;;;5.70;;
61385;SDS011;47256;18.904;-99.054;2023-08-12T12:42:39;7.75;;;5.45;;
61385;SDS011;47256;18.904;-99.054;2023-08-12T12:45:07;7.10;;;5.90;;
61385;SDS011;47256;18.904;-99.054;2023-08-12T12:47:34;7.22;;;4.78;;
61385;SDS011;47256;18.904;-99.054;2023-08-12T12:50:03;16.92;;;6.07;;
61385;SDS011;47256;18.904;-99.054;2023-08-12T12:52:31;7.82;;;5.35;;
61385;SDS011;47256;18.904;-99.054;2023-08-12T12:54:59;10.32;;;5.63;;
61385;SDS011;47256;18.904;-99.054;2023-08-12T12:57:27;7.18;;;5.65;;
61385;SDS011;47256;18.904;-99.054;2023-08-12T12:59:54;8.88;;;5.95;;
61385;SDS011;47256;18.904;-99.054;2023-08-12T13:02:21;11.35;;;5.90;;
61385;SDS011;47256;18.904;-99.054;2023-08-12T13:04:48;11.15;;;5.25;;
61385;SDS011;47256;18.904;-99.054;2023-08-12T13:07:15;13.38;;;4.93;;
61385;SDS011;47256;18.904;-99.054;2023-08-12T13:09:43;6.05;;;4.93;;
61385;SDS011;47256;18.904;-99.054;2023-08-12T13:12:10;8.70;;;4.97;;
61385;SDS011;47256;18.904;-99.054;2023-08-12T13:14:37;8.00;;;5.68;;
61385;SDS011;47256;18.904;-99.054;2023-08-12T13:17:04;12.52;;;6.28;;
61385;SDS011;47256;18.904;-99.054;2023-08-12T13:19:31;9.18;;;5.40;;
61385;SDS011;47256;18.904;-99.054;2023-08-12T13:21:59;9.93;;;5.38;;
61385;SDS011;47256;18.904;-99.054;2023-08-12T13:24:27;6.97;;;5.35;;
61385;SDS011;47256;18.904;-99.054;2023-08-12T13:26:55;9.48;;;5.72;;
61385;SDS011;47256;18.904;-99.054;2023-08-12T13:29:23;9.35;;;6.10;;
61385;SDS011;47256;18.904;-99.054;2023-08-12T13:31:52;8.38;;;5.88;;
61385;SDS011;47256;18.904;-99.054;2023-08-12T13:34:20;12.75;;;5.35;;
61385;SDS011;47256;18.904;-99.054;2023-08-12T13:36:48;9.60;;;5.03;;
61385;SDS011;47256;18.904;-99.054;2023-08-12T13:39:15;9.77;;;5.72;;
61385;SDS011;47256;18.904;-99.054;2023-08-12T13:41:43;9.38;;;6.30;;
61385;SDS011;47256;18.904;-99.054;2023-08-12T13:44:10;8.43;;;6.30;;
61385;SDS011;47256;18.904;-99.054;2023-08-12T13:46:37;16.40;;;5.80;;
61385;SDS011;47256;18.904;-99.054;2023-08-12T13:49:05;8.50;;;6.50;;
61385;SDS011;47256;18.904;-99.054;2023-08-12T13:51:32;10.15;;;5.85;;
61385;SDS011;47256;18.904;-99.054;2023-08-12T13:53:59;9.38;;;6.30;;
61385;SDS011;47256;18.904;-99.054;2023-08-12T13:56:27;16.52;;;6.55;;
61385;SDS011;47256;18.904;-99.054;2023-08-12T13:58:54;18.10;;;6.75;;
61385;SDS011;47256;18.904;-99.054;2023-08-12T14:01:22;7.65;;;6.25;;
61385;SDS011;47256;18.904;-99.054;2023-08-12T14:03:49;15.77;;;6.47;;
61385;SDS011;47256;18.904;-99.054;2023-08-12T14:06:17;10.20;;;7.28;;
61385;SDS011;47256;18.904;-99.054;2023-08-12T14:08:44;13.00;;;7.63;;
61385;SDS011;47256;18.904;-99.054;2023-08-12T14:11:11;12.48;;;6.85;;
61385;SDS011;47256;18.904;-99.054;2023-08-12T14:13:38;7.30;;;6.20;;
61385;SDS011;47256;18.904;-99.054;2023-08-12T14:16:06;13.75;;;6.90;;
61385;SDS011;47256;18.904;-99.054;2023-08-12T14:18:33;11.93;;;6.00;;
61385;SDS011;47256;18.904;-99.054;2023-08-12T14:21:00;10.25;;;6.30;;
61385;SDS011;47256;18.904;-99.054;2023-08-12T14:23:27;9.93;;;6.28;;
61385;SDS011;47256;18.904;-99.054;2023-08-12T14:25:54;8.70;;;5.88;;
61385;SDS011;47256;18.904;-99.054;2023-08-12T14:28:21;8.73;;;5.82;;
61385;SDS011;47256;18.904;-99.054;2023-08-12T14:30:49;7.82;;;6.22;;
61385;SDS011;47256;18.904;-99.054;2023-08-12T14:33:17;10.43;;;6.03;;
61385;SDS011;47256;18.904;-99.054;2023-08-12T14:35:48;10.32;;;6.20;;
61385;SDS011;47256;18.904;-99.054;2023-08-12T14:38:17;9.27;;;6.45;;
61385;SDS011;47256;18.904;-99.054;2023-08-12T14:40:48;13.35;;;6.43;;
61385;SDS011;47256;18.904;-99.054;2023-08-12T14:43:16;7.85;;;5.90;;